createdAt,value
2022-08-26T00:00:20.659Z,100296.69
2022-08-26T00:02:49.391Z,100296.53
2022-08-26T00:05:20.024Z,100296.94
2022-08-26T00:07:48.766Z,100298.59
2022-08-26T00:10:18.075Z,100297.78
2022-08-26T00:12:48.113Z,100299.47
2022-08-26T00:15:19.920Z,100294.50
2022-08-26T00:17:49.799Z,100291.63
2022-08-26T00:20:21.522Z,100288.31
2022-08-26T00:22:49.906Z,100290.59
2022-08-26T00:25:19.417Z,100285.44
2022-08-26T00:27:49.738Z,100288.34
2022-08-26T00:30:24.261Z,100287.94
2022-08-26T00:32:56.018Z,100284.41
2022-08-26T00:35:25.331Z,100289.41
2022-08-26T00:37:57.115Z,100281.31
2022-08-26T00:40:29.123Z,100284.22
2022-08-26T00:42:59.702Z,100283.84
2022-08-26T00:45:28.700Z,100278.88
2022-08-26T00:47:59.939Z,100285.69
2022-08-26T00:50:32.130Z,100294.78
2022-08-26T00:53:02.139Z,100294.78
2022-08-26T00:55:34.626Z,100299.56
2022-08-26T00:58:08.843Z,100298.28
2022-08-26T01:00:37.770Z,100296.88
2022-08-26T01:03:07.466Z,100295.22
2022-08-26T01:05:40.844Z,100299.56
2022-08-26T01:08:09.591Z,100292.50
2022-08-26T01:10:37.950Z,100301.19
2022-08-26T01:13:11.382Z,100287.56
2022-08-26T01:15:44.560Z,100291.69
2022-08-26T01:18:14.711Z,100289.22
2022-08-26T01:20:52.461Z,100288.38
2022-08-26T01:23:32.677Z,100297.47
2022-08-26T01:26:03.742Z,100290.84
2022-08-26T01:28:35.975Z,100286.31
2022-08-26T01:31:06.944Z,100290.84
2022-08-26T01:33:42.155Z,100284.66
2022-08-26T01:36:12.742Z,100287.72
2022-08-26T01:38:43.207Z,100290.63
2022-08-26T01:41:19.528Z,100287.13
2022-08-26T01:43:49.777Z,100287.13
2022-08-26T01:46:19.177Z,100290.22
2022-08-26T01:48:47.918Z,100283.63
2022-08-26T01:51:21.705Z,100285.47
2022-08-26T01:53:51.957Z,100288.75
2022-08-26T01:56:23.375Z,100281.75
2022-08-26T01:58:53.344Z,100283.00
2022-08-26T02:01:23.063Z,100286.53
2022-08-26T02:04:04.284Z,100289.59
2022-08-26T02:06:33.560Z,100284.22
2022-08-26T02:09:06.174Z,100291.03
2022-08-26T02:11:36.777Z,100292.91
2022-08-26T02:14:07.664Z,100289.59
2022-08-26T02:16:42.247Z,100287.56
2022-08-26T02:19:17.331Z,100285.47
2022-08-26T02:21:51.038Z,100288.81
2022-08-26T02:24:27.576Z,100288.38
2022-08-26T02:26:58.260Z,100296.44
2022-08-26T02:29:31.746Z,100293.97
2022-08-26T02:32:00.231Z,100295.00
2022-08-26T02:34:32.085Z,100299.53
2022-08-26T02:37:01.902Z,100292.09
2022-08-26T02:39:32.618Z,100285.09
2022-08-26T02:42:01.762Z,100288.38
2022-08-26T02:44:30.693Z,100288.81
2022-08-26T02:46:59.782Z,100284.84
2022-08-26T02:49:30.505Z,100282.16
2022-08-26T02:52:01.959Z,100285.47
2022-08-26T02:54:32.147Z,100285.25
2022-08-26T02:57:02.720Z,100290.41
2022-08-26T02:59:32.115Z,100291.47
2022-08-26T03:02:01.923Z,100278.22
2022-08-26T03:04:33.378Z,100277.59
2022-08-26T03:07:02.750Z,100281.91
2022-08-26T03:09:32.919Z,100274.06
2022-08-26T03:12:01.606Z,100284.78
2022-08-26T03:14:30.786Z,100274.03
2022-08-26T03:16:59.674Z,100278.16
2022-08-26T03:19:27.969Z,100278.94
2022-08-26T03:21:57.822Z,100280.81
2022-08-26T03:24:27.029Z,100277.91
2022-08-26T03:26:57.282Z,100276.09
2022-08-26T03:29:42.968Z,100278.34
2022-08-26T03:32:11.947Z,100274.84
2022-08-26T03:34:40.718Z,100281.22
2022-08-26T03:37:09.443Z,100271.34
2022-08-26T03:39:38.361Z,100270.91
2022-08-26T03:42:08.677Z,100265.34
2022-08-26T03:44:42.013Z,100269.69
2022-08-26T03:47:11.070Z,100270.31
2022-08-26T03:49:39.586Z,100268.44
2022-08-26T03:52:08.387Z,100269.69
2022-08-26T03:54:37.224Z,100265.13
2022-08-26T03:57:06.322Z,100266.78
2022-08-26T03:59:36.819Z,100270.94
2022-08-26T04:02:08.461Z,100266.84
2022-08-26T04:04:39.888Z,100263.75
2022-08-26T04:07:09.024Z,100265.19
2022-08-26T04:09:37.761Z,100266.84
2022-08-26T04:12:09.372Z,100273.25
2022-08-26T04:14:39.999Z,100271.81
2022-08-26T04:17:08.788Z,100267.88
2022-08-26T04:19:37.108Z,100264.81
2022-08-26T04:22:06.269Z,100272.22
2022-08-26T04:24:34.878Z,100267.69
2022-08-26T04:27:03.746Z,100267.09
2022-08-26T04:29:32.990Z,100267.91
2022-08-26T04:32:04.664Z,100261.69
2022-08-26T04:34:34.443Z,100266.19
2022-08-26T04:37:03.160Z,100264.50
2022-08-26T04:39:32.268Z,100268.19
2022-08-26T04:42:01.734Z,100255.72
2022-08-26T04:44:31.776Z,100260.06
2022-08-26T04:47:00.569Z,100266.88
2022-08-26T04:49:35.233Z,100262.50
2022-08-26T04:52:05.276Z,100258.28
2022-08-26T04:54:33.985Z,100257.81
2022-08-26T04:57:02.705Z,100265.59
2022-08-26T04:59:32.618Z,100262.81
2022-08-26T05:02:03.934Z,100264.13
2022-08-26T05:04:36.198Z,100269.84
2022-08-26T05:07:06.364Z,100273.72
2022-08-26T05:09:34.867Z,100274.22
2022-08-26T05:12:03.719Z,100269.31
2022-08-26T05:14:33.441Z,100273.97
2022-08-26T05:17:02.996Z,100261.91
2022-08-26T05:19:31.666Z,100269.88
2022-08-26T05:22:02.971Z,100274.88
2022-08-26T05:24:31.458Z,100279.31
2022-08-26T05:27:00.101Z,100273.72
2022-08-26T05:29:28.819Z,100273.72
2022-08-26T05:31:57.568Z,100273.09
2022-08-26T05:34:30.328Z,100274.31
2022-08-26T05:36:59.753Z,100268.06
2022-08-26T05:39:29.942Z,100269.53
2022-08-26T05:42:00.012Z,100281.22
2022-08-26T05:44:28.710Z,100271.81
2022-08-26T05:46:57.407Z,100272.44
2022-08-26T05:49:26.673Z,100276.09
2022-08-26T05:51:55.318Z,100269.66
2022-08-26T05:54:24.152Z,100278.47
2022-08-26T05:56:54.189Z,100278.56
2022-08-26T05:59:24.569Z,100276.03
2022-08-26T06:01:53.459Z,100281.19
2022-08-26T06:04:23.113Z,100280.94
2022-08-26T06:06:56.198Z,100275.34
2022-08-26T06:09:26.789Z,100279.34
2022-08-26T06:11:59.334Z,100271.97
2022-08-26T06:14:28.140Z,100270.59
2022-08-26T06:16:56.748Z,100265.19
2022-08-26T06:19:25.850Z,100271.38
2022-08-26T06:22:23.412Z,100272.66
2022-08-26T06:25:10.111Z,100271.19
2022-08-26T06:27:40.331Z,100267.81
2022-08-26T06:30:10.109Z,100274.38
2022-08-26T06:32:39.249Z,100271.28
2022-08-26T06:35:12.127Z,100280.88
2022-08-26T06:37:41.245Z,100284.81
2022-08-26T06:40:11.569Z,100280.06
2022-08-26T06:42:42.447Z,100277.19
2022-08-26T06:45:12.569Z,100273.91
2022-08-26T06:47:41.304Z,100277.66
2022-08-26T06:50:10.396Z,100277.75
2022-08-26T06:52:38.813Z,100276.16
2022-08-26T06:55:08.353Z,100276.44
2022-08-26T06:57:41.109Z,100279.28
2022-08-26T07:00:13.787Z,100283.75
2022-08-26T07:02:47.014Z,100272.72
2022-08-26T07:05:16.256Z,100276.97
2022-08-26T07:07:44.591Z,100273.53
2022-08-26T07:10:13.480Z,100275.00
2022-08-26T07:12:43.421Z,100278.94
2022-08-26T07:15:17.621Z,100275.78
2022-08-26T07:17:52.649Z,100272.59
2022-08-26T07:20:21.322Z,100273.19
2022-08-26T07:22:49.692Z,100271.88
2022-08-26T07:25:19.310Z,100264.72
2022-08-26T07:27:54.041Z,100269.16
2022-08-26T07:30:25.678Z,100254.00
2022-08-26T07:32:57.697Z,100260.97
2022-08-26T07:35:27.395Z,100261.28
2022-08-26T07:37:57.186Z,100253.25
2022-08-26T07:40:26.504Z,100253.47
2022-08-26T07:42:55.413Z,100255.03
2022-08-26T07:45:25.771Z,100257.78
2022-08-26T07:47:54.698Z,100257.16
2022-08-26T07:50:48.786Z,100254.09
2022-08-26T07:53:12.569Z,100248.53
2022-08-26T07:55:43.366Z,100254.88
2022-08-26T07:58:13.175Z,100242.88
2022-08-26T08:00:43.456Z,100237.19
2022-08-26T08:03:15.021Z,100249.00
2022-08-26T08:05:48.709Z,100242.88
2022-08-26T08:08:26.648Z,100245.28
2022-08-26T08:10:57.305Z,100245.47
2022-08-26T08:13:26.384Z,100252.38
2022-08-26T08:15:56.569Z,100248.25
2022-08-26T08:18:25.374Z,100247.78
2022-08-26T08:21:05.048Z,100245.22
2022-08-26T08:23:43.279Z,100258.25
2022-08-26T08:26:13.322Z,100249.28
2022-08-26T08:28:41.786Z,100242.00
2022-08-26T08:31:38.770Z,100232.69
2022-08-26T08:34:09.227Z,100236.69
2022-08-26T08:36:38.002Z,100240.38
2022-08-26T08:39:07.244Z,100237.69
2022-08-26T08:41:45.071Z,100231.63
2022-08-26T08:44:16.514Z,100236.53
2022-08-26T08:46:46.871Z,100230.09
2022-08-26T08:49:16.791Z,100235.44
2022-08-26T08:51:51.018Z,100235.75
2022-08-26T08:54:22.034Z,100228.06
2022-08-26T08:56:53.906Z,100226.84
2022-08-26T08:59:24.265Z,100224.88
2022-08-26T09:02:02.381Z,100222.72
2022-08-26T09:04:46.788Z,100225.94
2022-08-26T09:07:18.984Z,100226.44
2022-08-26T09:09:51.449Z,100233.81
2022-08-26T09:12:29.534Z,100222.06
2022-08-26T09:15:03.058Z,100225.16
2022-08-26T09:17:41.210Z,100220.31
2022-08-26T09:20:15.957Z,100218.28
2022-08-26T09:22:44.431Z,100228.59
2022-08-26T09:25:15.042Z,100226.31
2022-08-26T09:27:46.087Z,100210.72
2022-08-26T09:30:17.181Z,100211.75
2022-08-26T09:32:59.328Z,100217.06
2022-08-26T09:35:31.779Z,100211.94
2022-08-26T09:38:00.646Z,100206.44
2022-08-26T09:40:34.530Z,100196.66
2022-08-26T09:43:09.371Z,100213.34
2022-08-26T09:45:39.498Z,100203.31
2022-08-26T09:48:10.260Z,100202.09
2022-08-26T09:50:54.884Z,100202.38
2022-08-26T09:53:30.260Z,100196.06
2022-08-26T09:56:14.633Z,100197.94
2022-08-26T09:58:45.428Z,100189.66
2022-08-26T10:01:18.118Z,100194.31
2022-08-26T10:03:50.125Z,100194.19
2022-08-26T10:06:28.111Z,100207.59
2022-08-26T10:08:59.268Z,100195.13
2022-08-26T10:11:35.503Z,100186.81
2022-08-26T10:14:07.197Z,100199.69
2022-08-26T10:16:48.912Z,100188.94
2022-08-26T10:19:23.369Z,100189.53
2022-08-26T10:21:55.536Z,100187.69
2022-08-26T10:24:27.524Z,100188.44
2022-08-26T10:27:01.532Z,100185.59
2022-08-26T10:29:34.504Z,100184.63
2022-08-26T10:32:07.372Z,100188.16
2022-08-26T10:34:43.918Z,100181.19
2022-08-26T10:37:16.731Z,100180.50
2022-08-26T10:39:57.250Z,100174.00
2022-08-26T10:42:30.336Z,100179.88
2022-08-26T10:45:06.376Z,100179.72
2022-08-26T10:47:44.806Z,100170.53
2022-08-26T10:50:15.241Z,100165.53
2022-08-26T10:52:56.490Z,100161.50
2022-08-26T10:55:31.250Z,100160.31
2022-08-26T10:58:09.091Z,100151.84
2022-08-26T11:01:01.087Z,100152.16
2022-08-26T11:03:35.220Z,100151.94
2022-08-26T11:06:26.354Z,100155.69
2022-08-26T11:08:56.955Z,100149.56
2022-08-26T11:11:46.692Z,100138.97
2022-08-26T11:14:46.172Z,100138.78
2022-08-26T11:17:58.031Z,100136.34
2022-08-26T11:20:37.491Z,100135.97
2022-08-26T11:23:40.495Z,100128.16
2022-08-26T11:26:35.533Z,100122.38
2022-08-26T11:29:12.209Z,100122.34
2022-08-26T11:31:57.559Z,100120.13
2022-08-26T11:34:56.336Z,100113.16
2022-08-26T11:37:30.987Z,100112.94
2022-08-26T11:40:05.012Z,100113.13
2022-08-26T11:42:38.895Z,100105.06
2022-08-26T11:45:18.241Z,100107.03
2022-08-26T11:47:49.385Z,100101.81
2022-08-26T11:50:23.492Z,100107.78
2022-08-26T11:52:53.614Z,100102.00
2022-08-26T11:55:24.605Z,100097.81
2022-08-26T11:57:54.946Z,100093.75
2022-08-26T12:00:25.139Z,100092.09
2022-08-26T12:02:55.756Z,100086.78
2022-08-26T12:05:30.936Z,100085.28
2022-08-26T12:08:04.117Z,100083.94
2022-08-26T12:10:35.569Z,100073.88
2022-08-26T12:13:06.395Z,100080.19
2022-08-26T12:15:36.225Z,100083.88
2022-08-26T12:18:28.867Z,100084.31
2022-08-26T12:21:00.882Z,100078.06
2022-08-26T12:23:43.406Z,100078.94
2022-08-26T12:26:22.427Z,100072.06
2022-08-26T12:28:57.480Z,100068.84
2022-08-26T12:31:31.615Z,100071.28
2022-08-26T12:34:02.976Z,100062.84
2022-08-26T12:36:33.810Z,100060.56
2022-08-26T12:39:10.508Z,100062.88
2022-08-26T12:41:47.707Z,100057.13
2022-08-26T12:44:53.843Z,100049.66
2022-08-26T12:47:30.837Z,100057.66
2022-08-26T12:50:13.281Z,100051.28
2022-08-26T12:52:45.353Z,100046.69
2022-08-26T12:55:21.749Z,100052.44
2022-08-26T12:57:51.967Z,100043.69
2022-08-26T13:00:42.602Z,100035.78
2022-08-26T13:03:43.471Z,100034.50
2022-08-26T13:06:18.245Z,100035.25
2022-08-26T13:08:48.086Z,100020.81
2022-08-26T13:11:20.564Z,100021.34
2022-08-26T13:13:53.309Z,100020.53
2022-08-26T13:16:23.369Z,100019.28
2022-08-26T13:18:54.110Z,100013.63
2022-08-26T13:21:25.497Z,100017.50
2022-08-26T13:23:55.017Z,100009.22
2022-08-26T13:26:23.881Z,100012.25
2022-08-26T13:29:01.916Z,100006.63
2022-08-26T13:31:33.156Z,100004.56
2022-08-26T13:34:03.006Z,100001.31
2022-08-26T13:36:31.840Z,99993.75
2022-08-26T13:39:00.852Z,99994.81
2022-08-26T13:41:29.909Z,100013.50
2022-08-26T13:44:00.418Z,100004.47
2022-08-26T13:46:30.277Z,100007.31
2022-08-26T13:48:59.431Z,100009.72
2022-08-26T13:51:29.112Z,99996.78
2022-08-26T13:53:58.692Z,99998.22
2022-08-26T13:56:29.775Z,99997.66
2022-08-26T13:59:01.283Z,99992.81
2022-08-26T14:01:32.553Z,99990.84
2022-08-26T14:04:03.243Z,99992.72
2022-08-26T14:06:32.189Z,99983.28
2022-08-26T14:09:01.117Z,99992.06
2022-08-26T14:11:29.813Z,99985.41
2022-08-26T14:14:09.379Z,99974.94
2022-08-26T14:16:59.635Z,99977.31
2022-08-26T14:19:29.747Z,99981.16
2022-08-26T14:22:00.955Z,99974.34
2022-08-26T14:24:31.194Z,99973.28
2022-08-26T14:26:59.962Z,99967.66
2022-08-26T14:29:30.145Z,99966.59
2022-08-26T14:31:59.794Z,99961.56
2022-08-26T14:34:28.323Z,99966.03
2022-08-26T14:36:56.852Z,99965.19
2022-08-26T14:39:25.569Z,99964.53
2022-08-26T14:41:56.673Z,99963.66
2022-08-26T14:44:30.775Z,99954.50
2022-08-26T14:47:02.284Z,99964.47
2022-08-26T14:49:31.482Z,99973.13
2022-08-26T14:52:00.293Z,99964.81
2022-08-26T14:54:30.085Z,99958.50
2022-08-26T14:57:01.190Z,99956.09
2022-08-26T14:59:33.223Z,99966.81
2022-08-26T15:02:02.261Z,99960.44
2022-08-26T15:04:32.283Z,99961.06
2022-08-26T15:07:01.823Z,99953.25
2022-08-26T15:09:33.187Z,99949.59
2022-08-26T15:12:02.638Z,99947.22
2022-08-26T15:14:33.143Z,99948.34
2022-08-26T15:17:02.558Z,99945.94
2022-08-26T15:19:31.113Z,99943.16
2022-08-26T15:21:59.893Z,99939.47
2022-08-26T15:24:29.873Z,99944.84
2022-08-26T15:26:58.816Z,99939.31
2022-08-26T15:29:27.749Z,99931.91
2022-08-26T15:31:57.632Z,99933.97
2022-08-26T15:34:27.040Z,99939.00
2022-08-26T15:36:55.822Z,99939.56
2022-08-26T15:39:24.677Z,99925.41
2022-08-26T15:41:53.346Z,99931.69
2022-08-26T15:44:22.144Z,99932.72
2022-08-26T15:46:55.317Z,99934.47
2022-08-26T15:49:28.220Z,99920.53
2022-08-26T15:51:56.930Z,99929.97
2022-08-26T15:54:25.902Z,99922.81
2022-08-26T15:56:54.769Z,99929.88
2022-08-26T15:59:23.836Z,99934.56
2022-08-26T16:01:52.735Z,99937.69
2022-08-26T16:04:21.856Z,99921.47
2022-08-26T16:06:52.333Z,99923.97
2022-08-26T16:09:24.436Z,99918.69
2022-08-26T16:11:53.684Z,99924.66
2022-08-26T16:14:22.510Z,99915.06
2022-08-26T16:16:51.133Z,99915.28
2022-08-26T16:19:20.181Z,99920.13
2022-08-26T16:21:50.873Z,99915.88
2022-08-26T16:24:24.774Z,99907.84
2022-08-26T16:26:56.399Z,99911.56
2022-08-26T16:29:26.144Z,99913.75
2022-08-26T16:31:54.915Z,99913.38
2022-08-26T16:34:23.805Z,99911.84
2022-08-26T16:36:53.173Z,99914.81
2022-08-26T16:39:23.335Z,99919.56
2022-08-26T16:41:52.199Z,99925.88
2022-08-26T16:44:22.289Z,99929.16
2022-08-26T16:46:50.741Z,99924.16
2022-08-26T16:49:27.265Z,99925.75
2022-08-26T16:51:56.074Z,99924.41
2022-08-26T16:54:26.383Z,99924.13
2022-08-26T16:56:55.126Z,99935.28
2022-08-26T16:59:24.171Z,99940.09
2022-08-26T17:01:52.627Z,99936.34
2022-08-26T17:04:22.086Z,99927.63
2022-08-26T17:06:51.091Z,99936.31
2022-08-26T17:09:19.880Z,99931.88
2022-08-26T17:11:50.444Z,99930.69
2022-08-26T17:14:19.680Z,99937.63
2022-08-26T17:16:51.292Z,99935.31
2022-08-26T17:19:20.478Z,99934.34
2022-08-26T17:21:49.438Z,99938.81
2022-08-26T17:24:18.532Z,99937.53
2022-08-26T17:26:48.352Z,99937.31
2022-08-26T17:29:20.927Z,99940.94
2022-08-26T17:31:49.217Z,99938.28
2022-08-26T17:34:18.020Z,99945.34
2022-08-26T17:36:46.828Z,99941.84
2022-08-26T17:39:15.627Z,99940.53
2022-08-26T17:41:44.871Z,99951.44
2022-08-26T17:44:13.606Z,99947.38
2022-08-26T17:46:43.315Z,99948.44
2022-08-26T17:49:11.796Z,99941.63
2022-08-26T17:51:41.093Z,99950.88
2022-08-26T17:54:09.757Z,99955.78
2022-08-26T17:56:38.490Z,99950.88
2022-08-26T17:59:07.156Z,99953.25
2022-08-26T18:01:36.654Z,99957.03
2022-08-26T18:04:06.902Z,99951.56
2022-08-26T18:06:35.808Z,99949.63
2022-08-26T18:09:05.154Z,99948.78
2022-08-26T18:11:34.549Z,99962.59
2022-08-26T18:14:03.297Z,99953.06
2022-08-26T18:16:38.197Z,99956.75
2022-08-26T18:19:08.712Z,99955.94
2022-08-26T18:21:37.481Z,99957.53
2022-08-26T18:24:08.314Z,99952.34
2022-08-26T18:26:41.560Z,99962.03
2022-08-26T18:29:11.270Z,99956.81
2022-08-26T18:31:39.780Z,99962.25
2022-08-26T18:34:12.926Z,99959.78
2022-08-26T18:36:41.753Z,99967.38
2022-08-26T18:39:11.060Z,99967.38
2022-08-26T18:41:44.348Z,99969.47
2022-08-26T18:44:14.331Z,99966.16
2022-08-26T18:46:42.892Z,99966.34
2022-08-26T18:49:13.811Z,99969.25
2022-08-26T18:51:44.339Z,99966.78
2022-08-26T18:54:13.436Z,99965.38
2022-08-26T18:56:43.831Z,99966.44
2022-08-26T18:59:13.712Z,99969.91
2022-08-26T19:01:43.447Z,99971.50
2022-08-26T19:04:15.577Z,99974.72
2022-08-26T19:06:45.142Z,99965.16
2022-08-26T19:09:14.595Z,99967.25
2022-08-26T19:11:43.813Z,99971.81
2022-08-26T19:14:14.944Z,99966.28
2022-08-26T19:16:44.634Z,99964.81
2022-08-26T19:19:15.270Z,99969.03
2022-08-26T19:21:44.233Z,99968.66
2022-08-26T19:24:15.766Z,99970.19
2022-08-26T19:26:45.373Z,99971.75
2022-08-26T19:29:14.551Z,99969.81
2022-08-26T19:31:43.973Z,99966.47
2022-08-26T19:34:14.252Z,99972.88
2022-08-26T19:36:46.675Z,99971.16
2022-08-26T19:39:15.666Z,99972.16
2022-08-26T19:41:44.559Z,99969.41
2022-08-26T19:44:35.918Z,99969.91
2022-08-26T19:47:04.980Z,99977.06
2022-08-26T19:49:35.346Z,99973.47
2022-08-26T19:52:04.608Z,99973.13
2022-08-26T19:54:33.380Z,99975.78
2022-08-26T19:57:02.047Z,99982.19
2022-08-26T19:59:33.205Z,99976.13
2022-08-26T20:02:02.339Z,99985.00
2022-08-26T20:04:31.438Z,99982.44
2022-08-26T20:07:05.726Z,99985.31
2022-08-26T20:09:35.497Z,99979.81
2022-08-26T20:12:06.092Z,99983.50
2022-08-26T20:14:35.690Z,99981.53
2022-08-26T20:17:05.258Z,99975.44
2022-08-26T20:19:51.352Z,99977.81
2022-08-26T20:22:22.192Z,99978.28
2022-08-26T20:24:51.814Z,99980.91
2022-08-26T20:27:22.385Z,99981.13
2022-08-26T20:29:51.133Z,99979.75
2022-08-26T20:32:20.454Z,99978.00
2022-08-26T20:34:49.454Z,99980.59
2022-08-26T20:37:18.585Z,99979.22
2022-08-26T20:39:52.002Z,99980.28
2022-08-26T20:42:20.771Z,99982.03
2022-08-26T20:44:54.212Z,99983.03
2022-08-26T20:47:24.092Z,99994.31
2022-08-26T20:49:52.845Z,99983.41
2022-08-26T20:52:21.611Z,99995.75
2022-08-26T20:54:51.710Z,99988.84
2022-08-26T20:57:22.340Z,99996.84
2022-08-26T20:59:51.428Z,99997.66
2022-08-26T21:02:20.287Z,99992.84
2022-08-26T21:04:48.780Z,99992.25
2022-08-26T21:07:17.764Z,99998.13
2022-08-26T21:09:46.511Z,100004.38
2022-08-26T21:12:16.608Z,100003.78
2022-08-26T21:14:49.023Z,100004.25
2022-08-26T21:17:18.452Z,100003.44
2022-08-26T21:19:46.745Z,100004.47
2022-08-26T21:22:15.437Z,100004.97
2022-08-26T21:24:44.141Z,100002.84
2022-08-26T21:27:12.865Z,99998.28
2022-08-26T21:29:47.788Z,99996.84
2022-08-26T21:32:17.723Z,100000.03
2022-08-26T21:34:46.113Z,100001.56
2022-08-26T21:37:16.426Z,99996.75
2022-08-26T21:39:45.844Z,99994.03
2022-08-26T21:42:14.631Z,99994.38
2022-08-26T21:44:50.822Z,99989.22
2022-08-26T21:47:23.433Z,99994.25
2022-08-26T21:49:52.004Z,99993.94
2022-08-26T21:52:22.343Z,99994.50
2022-08-26T21:54:51.103Z,99988.53
2022-08-26T21:57:20.102Z,99983.94
2022-08-26T21:59:49.038Z,99984.53
2022-08-26T22:02:18.056Z,99985.34
2022-08-26T22:04:48.928Z,99983.94
2022-08-26T22:07:19.295Z,99988.75
2022-08-26T22:09:48.857Z,99992.97
2022-08-26T22:12:18.454Z,99987.47
2022-08-26T22:14:47.262Z,99990.88
2022-08-26T22:17:17.180Z,99996.41
2022-08-26T22:19:48.628Z,100005.09
2022-08-26T22:22:18.308Z,99992.88
2022-08-26T22:24:47.159Z,99992.06
2022-08-26T22:27:15.979Z,100000.16
2022-08-26T22:29:46.681Z,99999.81
2022-08-26T22:32:15.617Z,99998.03
2022-08-26T22:34:44.175Z,100000.28
2022-08-26T22:37:14.511Z,99997.69
2022-08-26T22:39:43.386Z,99993.00
2022-08-26T22:42:12.083Z,99997.44
2022-08-26T22:44:41.358Z,99992.41
2022-08-26T22:47:10.205Z,99996.59
2022-08-26T22:49:38.711Z,99988.97
2022-08-26T22:52:07.493Z,99992.94
2022-08-26T22:54:37.543Z,99990.38
2022-08-26T22:57:06.371Z,99995.03
2022-08-26T22:59:35.111Z,99997.59
2022-08-26T23:02:03.950Z,99991.00
2022-08-26T23:04:32.375Z,99989.84
2022-08-26T23:07:03.526Z,99983.25
2022-08-26T23:09:32.727Z,99976.91
2022-08-26T23:12:02.883Z,99977.16
2022-08-26T23:14:31.385Z,99983.34
2022-08-26T23:17:00.195Z,99984.88
2022-08-26T23:19:28.643Z,99980.19
2022-08-26T23:21:57.608Z,99976.06
2022-08-26T23:24:26.407Z,99986.03
2022-08-26T23:26:55.268Z,99975.25
2022-08-26T23:29:25.493Z,99977.56
2022-08-26T23:31:54.081Z,99982.59
2022-08-26T23:34:40.221Z,99971.66
2022-08-26T23:37:10.595Z,99972.13
2022-08-26T23:39:39.421Z,99963.91
2022-08-26T23:42:08.749Z,99959.81
2022-08-26T23:44:39.059Z,99959.91
2022-08-26T23:47:08.925Z,99963.41
2022-08-26T23:49:37.821Z,99963.03
2022-08-26T23:52:24.572Z,99961.13
2022-08-26T23:54:53.567Z,99959.28
2022-08-26T23:57:24.138Z,99960.72
2022-08-26T23:59:54.476Z,99956.16
